Time;durP1;ratioP1;P1;durP2;ratioP2;P2;SDS_P1;SDS_P2;PMS_P1;PMS_P2;Temp;Humidity;BMP_temperature;BMP_pressure;BME280_temperature;BME280_humidity;BME280_pressure;Samples;Min_cycle;Max_cycle;Signal;HPM_P1;HPM_P2
2023/03/29 00:01:24;;;;;;;8.10;3.97;;;;;;;;;;8312792;28;20045;-64
2023/03/29 00:05:24;;;;;;;4.25;2.22;;;;;;;;;;8315281;28;20322;-65
2023/03/29 00:09:25;;;;;;;3.08;1.98;;;;;;;;;;8311829;28;20846;-64
2023/03/29 00:13:26;;;;;;;3.47;2.40;;;;;;;;;;8314181;28;20032;-65
2023/03/29 00:17:26;;;;;;;3.50;2.05;;;;;;;;;;8314442;28;20120;-64
2023/03/29 00:21:26;;;;;;;7.47;2.60;;;;;;;;;;8312149;28;20056;-65
2023/03/29 00:25:26;;;;;;;4.40;2.22;;;;;;;;;;8313405;28;20122;-65
2023/03/29 00:29:27;;;;;;;5.28;2.33;;;;;;;;;;8313370;28;20490;-65
2023/03/29 00:33:27;;;;;;;3.05;1.90;;;;;;;;;;8311916;28;20036;-64
2023/03/29 00:37:28;;;;;;;2.40;1.90;;;;;;;;;;8310051;28;20040;-65
2023/03/29 00:41:28;;;;;;;6.60;2.50;;;;;;;;;;8311544;28;20040;-66
2023/03/29 00:45:29;;;;;;;2.95;2.00;;;;;;;;;;8312234;28;20044;-64
2023/03/29 00:49:29;;;;;;;6.43;2.83;;;;;;;;;;8310539;28;20083;-65
2023/03/29 00:53:33;;;;;;;4.82;2.67;;;;;;;;;;8314466;28;20028;-64
2023/03/29 00:57:33;;;;;;;4.60;1.97;;;;;;;;;;8311764;28;20028;-63
2023/03/29 01:01:36;;;;;;;2.72;1.90;;;;;;;;;;8312197;28;20110;-64
2023/03/29 01:05:39;;;;;;;2.08;1.50;;;;;;;;;;8309297;28;20025;-64
2023/03/29 01:09:42;;;;;;;2.22;1.45;;;;;;;;;;8312451;28;20029;-64
2023/03/29 01:13:44;;;;;;;1.50;1.40;;;;;;;;;;8311046;28;20459;-64
2023/03/29 01:17:49;;;;;;;2.05;1.33;;;;;;;;;;8310705;28;20151;-63
2023/03/29 01:21:52;;;;;;;3.40;1.33;;;;;;;;;;8310685;28;20083;-64
2023/03/29 01:26:00;;;;;;;4.43;1.40;;;;;;;;;;8292083;28;20028;-64
2023/03/29 01:30:03;;;;;;;1.90;1.30;;;;;;;;;;8309600;28;20319;-63
2023/03/29 01:34:11;;;;;;;1.33;1.17;;;;;;;;;;8312494;28;20033;-64
2023/03/29 01:38:14;;;;;;;1.55;1.20;;;;;;;;;;8309067;28;20430;-64
2023/03/29 01:42:17;;;;;;;1.70;1.20;;;;;;;;;;8310689;28;20175;-65
2023/03/29 01:46:27;;;;;;;1.35;1.25;;;;;;;;;;8311137;28;20573;-63
2023/03/29 01:50:27;;;;;;;2.40;1.20;;;;;;;;;;8309329;28;20521;-64
2023/03/29 01:54:32;;;;;;;1.33;1.10;;;;;;;;;;8311712;28;20040;-64
2023/03/29 01:58:34;;;;;;;2.40;1.15;;;;;;;;;;8307955;28;20718;-63
2023/03/29 02:02:35;;;;;;;1.85;1.25;;;;;;;;;;8306219;28;20056;-63
2023/03/29 02:06:49;;;;;;;1.83;1.50;;;;;;;;;;8308894;28;20037;-63
2023/03/29 02:10:50;;;;;;;2.87;1.47;;;;;;;;;;8307783;28;20023;-63
2023/03/29 02:14:50;;;;;;;2.90;1.60;;;;;;;;;;8307504;28;20026;-63
2023/03/29 02:18:51;;;;;;;2.70;1.80;;;;;;;;;;8303525;28;20038;-64
2023/03/29 02:22:57;;;;;;;2.10;1.60;;;;;;;;;;8306873;28;20029;-63
2023/03/29 02:26:58;;;;;;;2.10;1.75;;;;;;;;;;8306683;28;20047;-63
2023/03/29 02:31:10;;;;;;;1.73;1.58;;;;;;;;;;8306832;28;20073;-64
2023/03/29 02:35:12;;;;;;;3.65;2.22;;;;;;;;;;8306642;28;20981;-63
2023/03/29 02:39:14;;;;;;;3.97;2.08;;;;;;;;;;8308029;28;20017;-63
2023/03/29 02:43:15;;;;;;;4.38;1.90;;;;;;;;;;8308363;28;20136;-63
2023/03/29 02:47:21;;;;;;;3.67;1.50;;;;;;;;;;8313266;28;20041;-64
2023/03/29 02:51:23;;;;;;;3.50;1.88;;;;;;;;;;8312386;28;20791;-64
2023/03/29 02:55:24;;;;;;;2.53;1.92;;;;;;;;;;8313693;28;20021;-64
2023/03/29 02:59:24;;;;;;;6.85;1.80;;;;;;;;;;8313771;28;20033;-63
2023/03/29 03:03:25;;;;;;;4.03;2.03;;;;;;;;;;8315287;28;20045;-63
2023/03/29 03:07:27;;;;;;;6.25;2.35;;;;;;;;;;8318247;28;20040;-63
2023/03/29 03:11:27;;;;;;;5.25;2.33;;;;;;;;;;8314783;28;20017;-63
2023/03/29 03:15:27;;;;;;;3.03;1.47;;;;;;;;;;8313852;28;20144;-63
2023/03/29 03:19:28;;;;;;;1.73;1.40;;;;;;;;;;8312912;28;20284;-63
2023/03/29 03:23:29;;;;;;;1.63;1.20;;;;;;;;;;8317347;28;20029;-63
2023/03/29 03:27:29;;;;;;;2.65;1.20;;;;;;;;;;8313661;28;20070;-63
2023/03/29 03:31:29;;;;;;;4.22;1.50;;;;;;;;;;8314415;28;20034;-63
2023/03/29 03:35:29;;;;;;;2.05;1.40;;;;;;;;;;8316461;28;20089;-63
2023/03/29 03:39:30;;;;;;;2.78;1.30;;;;;;;;;;8313219;28;20484;-63
2023/03/29 03:43:30;;;;;;;3.00;1.30;;;;;;;;;;8315507;28;20033;-63
2023/03/29 03:47:30;;;;;;;1.40;1.30;;;;;;;;;;8312712;28;20775;-63
2023/03/29 03:51:31;;;;;;;1.30;1.20;;;;;;;;;;8314132;28;20061;-63
2023/03/29 03:55:31;;;;;;;2.40;1.40;;;;;;;;;;8313765;28;20037;-64
2023/03/29 03:59:31;;;;;;;2.00;1.38;;;;;;;;;;8313107;28;20033;-63
2023/03/29 04:03:31;;;;;;;2.97;1.85;;;;;;;;;;8312906;28;20585;-63
2023/03/29 04:07:33;;;;;;;2.42;1.92;;;;;;;;;;8312141;28;20143;-63
2023/03/29 04:11:33;;;;;;;7.15;3.05;;;;;;;;;;8312750;28;20048;-63
2023/03/29 04:15:38;;;;;;;4.13;2.57;;;;;;;;;;8312769;28;20034;-63
2023/03/29 04:19:38;;;;;;;2.58;1.88;;;;;;;;;;8312947;28;21258;-64
2023/03/29 04:23:38;;;;;;;2.08;1.67;;;;;;;;;;8312818;28;20575;-63
2023/03/29 04:27:39;;;;;;;2.80;1.85;;;;;;;;;;8313217;28;20028;-63
2023/03/29 04:31:39;;;;;;;8.60;3.72;;;;;;;;;;8311962;28;20437;-64
2023/03/29 04:35:39;;;;;;;8.13;3.30;;;;;;;;;;8312366;28;21199;-63
2023/03/29 04:39:39;;;;;;;3.95;2.38;;;;;;;;;;8312953;28;20037;-64
2023/03/29 04:43:40;;;;;;;3.83;2.25;;;;;;;;;;8311786;28;20021;-63
2023/03/29 04:47:40;;;;;;;2.10;1.60;;;;;;;;;;8311118;28;20136;-64
2023/03/29 04:51:41;;;;;;;4.40;1.70;;;;;;;;;;8309982;28;20024;-64
2023/03/29 04:55:41;;;;;;;3.63;1.90;;;;;;;;;;8310540;28;20021;-64
2023/03/29 04:59:41;;;;;;;2.30;1.70;;;;;;;;;;8313687;28;20431;-64
2023/03/29 05:03:41;;;;;;;1.88;1.58;;;;;;;;;;8310894;28;20120;-63
2023/03/29 05:07:43;;;;;;;2.28;1.52;;;;;;;;;;8309131;28;20594;-64
2023/03/29 05:11:43;;;;;;;1.50;1.40;;;;;;;;;;8310090;28;20021;-64
2023/03/29 05:15:43;;;;;;;2.53;1.80;;;;;;;;;;8310408;28;20609;-64
2023/03/29 05:19:44;;;;;;;2.95;1.55;;;;;;;;;;8312643;28;20879;-63
2023/03/29 05:23:44;;;;;;;5.05;1.90;;;;;;;;;;8311234;28;20021;-63
2023/03/29 05:27:44;;;;;;;7.28;2.30;;;;;;;;;;8309776;28;20044;-64
2023/03/29 05:31:45;;;;;;;2.35;1.67;;;;;;;;;;8311986;28;20067;-63
2023/03/29 05:35:45;;;;;;;3.45;1.70;;;;;;;;;;8311428;28;20501;-64
2023/03/29 05:39:47;;;;;;;3.03;1.60;;;;;;;;;;8311381;28;20036;-64
2023/03/29 05:43:48;;;;;;;2.50;1.50;;;;;;;;;;8311016;28;20217;-62
2023/03/29 05:47:48;;;;;;;2.03;1.83;;;;;;;;;;8306384;28;20483;-63
2023/03/29 05:51:48;;;;;;;3.20;1.70;;;;;;;;;;8311367;28;20306;-63
2023/03/29 05:55:48;;;;;;;1.40;1.25;;;;;;;;;;8309335;28;20873;-64
2023/03/29 05:59:49;;;;;;;1.52;1.42;;;;;;;;;;8311711;28;20021;-62
2023/03/29 06:03:49;;;;;;;1.25;1.10;;;;;;;;;;8310470;28;20030;-63
2023/03/29 06:07:50;;;;;;;3.22;1.75;;;;;;;;;;8309996;28;20026;-63
2023/03/29 06:11:51;;;;;;;2.33;1.45;;;;;;;;;;8311485;28;20025;-63
2023/03/29 06:15:51;;;;;;;9.15;1.40;;;;;;;;;;8311218;28;20092;-63
2023/03/29 06:19:52;;;;;;;1.70;1.02;;;;;;;;;;8315260;28;20017;-63
2023/03/29 06:23:52;;;;;;;1.92;1.40;;;;;;;;;;8315779;28;20029;-63
2023/03/29 06:27:53;;;;;;;2.00;1.42;;;;;;;;;;8316334;28;20072;-63
2023/03/29 06:31:53;;;;;;;2.67;1.50;;;;;;;;;;8316351;28;20068;-63
2023/03/29 06:35:54;;;;;;;5.85;2.17;;;;;;;;;;8314923;28;20021;-63
2023/03/29 06:39:54;;;;;;;2.25;1.70;;;;;;;;;;8316457;28;20024;-64
2023/03/29 06:43:54;;;;;;;3.78;1.55;;;;;;;;;;8315463;28;20026;-63
2023/03/29 06:47:54;;;;;;;2.60;1.70;;;;;;;;;;8315354;28;20627;-63
2023/03/29 06:51:55;;;;;;;2.30;1.65;;;;;;;;;;8317087;28;20807;-63
2023/03/29 06:55:56;;;;;;;3.85;1.60;;;;;;;;;;8313697;28;20873;-63
2023/03/29 06:59:56;;;;;;;2.10;1.60;;;;;;;;;;8313442;28;20063;-63
2023/03/29 07:03:57;;;;;;;3.63;1.50;;;;;;;;;;8314029;28;20556;-63
2023/03/29 07:08:10;;;;;;;2.00;1.42;;;;;;;;;;8315494;28;20033;-63
2023/03/29 07:12:11;;;;;;;3.60;1.60;;;;;;;;;;8315394;28;20032;-63
2023/03/29 07:16:12;;;;;;;3.92;1.67;;;;;;;;;;8313973;28;20521;-63
2023/03/29 07:20:13;;;;;;;2.40;1.60;;;;;;;;;;8314214;28;20022;-63
2023/03/29 07:24:13;;;;;;;6.40;1.83;;;;;;;;;;8315158;28;20029;-63
2023/03/29 07:28:13;;;;;;;2.47;1.35;;;;;;;;;;8312349;28;20442;-63
2023/03/29 07:32:13;;;;;;;3.50;1.80;;;;;;;;;;8313344;28;20044;-63
2023/03/29 07:36:14;;;;;;;3.22;2.08;;;;;;;;;;8313261;28;20061;-64
2023/03/29 07:40:17;;;;;;;2.25;1.63;;;;;;;;;;8310649;28;20048;-63
2023/03/29 07:44:18;;;;;;;2.38;1.60;;;;;;;;;;8312959;28;20027;-63
2023/03/29 07:48:18;;;;;;;3.17;1.67;;;;;;;;;;8313654;28;20330;-63
2023/03/29 07:52:18;;;;;;;3.40;2.00;;;;;;;;;;8313377;28;20074;-63
2023/03/29 07:56:19;;;;;;;3.20;1.60;;;;;;;;;;8312155;28;21190;-63
2023/03/29 08:00:19;;;;;;;2.65;1.60;;;;;;;;;;8312990;28;20029;-64
2023/03/29 08:04:20;;;;;;;2.78;1.77;;;;;;;;;;8315073;28;20072;-64
2023/03/29 08:08:20;;;;;;;2.25;1.42;;;;;;;;;;8312809;28;20048;-63
2023/03/29 08:12:21;;;;;;;2.95;1.77;;;;;;;;;;8314904;28;20557;-63
2023/03/29 08:16:21;;;;;;;2.47;1.67;;;;;;;;;;8314310;28;20048;-63
2023/03/29 08:20:21;;;;;;;3.20;1.60;;;;;;;;;;8313005;28;20064;-63
2023/03/29 08:24:21;;;;;;;2.50;1.60;;;;;;;;;;8313319;28;20578;-64
2023/03/29 08:28:22;;;;;;;4.18;1.85;;;;;;;;;;8312798;28;20291;-64
2023/03/29 08:32:22;;;;;;;1.70;1.60;;;;;;;;;;8313640;28;20041;-64
2023/03/29 08:36:22;;;;;;;3.53;1.52;;;;;;;;;;8311596;28;20413;-63
2023/03/29 08:40:25;;;;;;;4.97;1.92;;;;;;;;;;8311360;28;20888;-63
2023/03/29 08:44:44;;;;;;;4.03;1.70;;;;;;;;;;8312008;28;20040;-63
2023/03/29 08:48:49;;;;;;;4.65;1.80;;;;;;;;;;8309808;28;20036;-64
2023/03/29 08:52:53;;;;;;;2.95;1.70;;;;;;;;;;8310514;28;20059;-64
2023/03/29 08:56:56;;;;;;;1.80;1.35;;;;;;;;;;8310694;28;20017;-64
2023/03/29 09:00:58;;;;;;;4.00;1.70;;;;;;;;;;8312940;28;20037;-64
2023/03/29 09:05:05;;;;;;;2.85;1.77;;;;;;;;;;8310655;28;20109;-64
2023/03/29 09:09:11;;;;;;;2.47;1.55;;;;;;;;;;8312061;28;20489;-64
2023/03/29 09:13:22;;;;;;;4.63;1.63;;;;;;;;;;8311032;28;20029;-64
2023/03/29 09:17:36;;;;;;;5.28;1.80;;;;;;;;;;8311748;28;20061;-64
2023/03/29 09:21:36;;;;;;;;;;;;;;;;;;8312482;28;20013;-64
2023/03/29 09:25:37;;;;;;;2.17;1.50;;;;;;;;;;8312157;28;19924;-64
2023/03/29 09:29:43;;;;;;;3.70;1.85;;;;;;;;;;8309695;28;20033;-64
2023/03/29 09:33:48;;;;;;;4.85;1.65;;;;;;;;;;8310828;28;20029;-64
2023/03/29 09:37:50;;;;;;;1.77;1.20;;;;;;;;;;8310911;28;20083;-64
2023/03/29 09:41:56;;;;;;;3.55;1.50;;;;;;;;;;8310640;28;20421;-64
2023/03/29 09:45:59;;;;;;;1.98;1.35;;;;;;;;;;8310194;28;20134;-64
2023/03/29 09:50:20;;;;;;;5.38;1.60;;;;;;;;;;8308892;28;20663;-64
2023/03/29 09:54:20;;;;;;;3.17;1.45;;;;;;;;;;8310644;28;20033;-64
2023/03/29 09:58:22;;;;;;;2.22;1.52;;;;;;;;;;8310285;28;20034;-64
2023/03/29 10:02:22;;;;;;;6.00;1.65;;;;;;;;;;8308936;28;20074;-65
2023/03/29 10:06:23;;;;;;;2.10;1.40;;;;;;;;;;8310099;28;20056;-64
2023/03/29 10:10:27;;;;;;;3.20;1.50;;;;;;;;;;8308255;28;20033;-64
2023/03/29 10:14:37;;;;;;;6.78;2.00;;;;;;;;;;8310698;28;20056;-65
2023/03/29 10:18:41;;;;;;;3.30;1.88;;;;;;;;;;8311923;28;20158;-64
2023/03/29 10:22:47;;;;;;;4.25;1.70;;;;;;;;;;8308810;28;20086;-64
2023/03/29 10:26:54;;;;;;;4.88;1.60;;;;;;;;;;8311441;28;20029;-64
2023/03/29 10:30:55;;;;;;;2.72;1.70;;;;;;;;;;8309955;28;20048;-65
2023/03/29 10:34:58;;;;;;;3.30;1.80;;;;;;;;;;8309282;28;21060;-64
2023/03/29 10:38:59;;;;;;;1.87;1.67;;;;;;;;;;8311871;28;20025;-65
2023/03/29 10:43:00;;;;;;;4.55;2.15;;;;;;;;;;8310869;28;20055;-64
2023/03/29 10:47:19;;;;;;;4.30;1.80;;;;;;;;;;8309378;28;20088;-64
2023/03/29 10:51:19;;;;;;;2.17;1.30;;;;;;;;;;8308270;28;20021;-64
2023/03/29 10:55:20;;;;;;;2.00;1.50;;;;;;;;;;8307920;28;20018;-65
2023/03/29 10:59:31;;;;;;;4.30;1.75;;;;;;;;;;8310459;28;20332;-65
2023/03/29 11:03:52;;;;;;;3.38;1.60;;;;;;;;;;8311550;28;20120;-65
2023/03/29 11:07:55;;;;;;;6.18;1.70;;;;;;;;;;8313189;28;20076;-65
2023/03/29 11:12:02;;;;;;;3.10;1.40;;;;;;;;;;8315115;28;20025;-64
2023/03/29 11:16:13;;;;;;;4.28;1.73;;;;;;;;;;8312937;28;20120;-65
2023/03/29 11:20:32;;;;;;;2.58;1.40;;;;;;;;;;8313701;28;20030;-64
2023/03/29 11:24:51;;;;;;;3.25;1.88;;;;;;;;;;8314038;28;20020;-64
2023/03/29 11:28:55;;;;;;;6.30;1.70;;;;;;;;;;8314037;28;20033;-64
2023/03/29 11:33:15;;;;;;;4.13;1.67;;;;;;;;;;8313432;28;20037;-64
2023/03/29 11:37:20;;;;;;;2.65;1.73;;;;;;;;;;8316232;28;20457;-64
2023/03/29 11:41:23;;;;;;;5.63;1.92;;;;;;;;;;8315190;28;20029;-64
2023/03/29 11:45:43;;;;;;;3.97;2.15;;;;;;;;;;8313455;28;20030;-65
2023/03/29 11:49:50;;;;;;;4.15;1.63;;;;;;;;;;8313946;28;20025;-65
2023/03/29 11:54:06;;;;;;;2.47;1.60;;;;;;;;;;8313734;28;20021;-64
2023/03/29 11:58:33;;;;;;;3.05;1.90;;;;;;;;;;8314363;28;20052;-64
2023/03/29 12:02:36;;;;;;;4.18;2.03;;;;;;;;;;8310612;28;20037;-64
2023/03/29 12:06:49;;;;;;;4.20;2.10;;;;;;;;;;8312798;28;20029;-66
2023/03/29 12:11:08;;;;;;;3.57;2.10;;;;;;;;;;8311825;28;20107;-64
2023/03/29 12:15:23;;;;;;;4.38;2.25;;;;;;;;;;8308531;28;20668;-65
2023/03/29 12:19:28;;;;;;;3.17;2.03;;;;;;;;;;8312751;28;20040;-65
2023/03/29 12:23:30;;;;;;;2.78;1.80;;;;;;;;;;8309925;28;20504;-65
2023/03/29 12:27:50;;;;;;;2.15;1.60;;;;;;;;;;8302508;28;20032;-64
2023/03/29 12:32:09;;;;;;;2.42;1.80;;;;;;;;;;8311125;28;20699;-64
2023/03/29 12:36:22;;;;;;;3.80;2.00;;;;;;;;;;8311060;28;20107;-64
2023/03/29 12:40:24;;;;;;;3.42;1.70;;;;;;;;;;8312504;28;20032;-65
2023/03/29 12:44:24;;;;;;;1.77;1.50;;;;;;;;;;8310703;28;20120;-65
2023/03/29 12:48:26;;;;;;;2.78;2.00;;;;;;;;;;8311621;28;20060;-65
2023/03/29 12:52:30;;;;;;;5.22;1.85;;;;;;;;;;8311329;28;20032;-65
2023/03/29 12:56:48;;;;;;;3.72;1.80;;;;;;;;;;8309629;28;20711;-65
2023/03/29 13:00:55;;;;;;;4.07;2.00;;;;;;;;;;8310541;28;20512;-65
2023/03/29 13:04:57;;;;;;;3.17;2.05;;;;;;;;;;8309868;28;20016;-65
2023/03/29 13:08:58;;;;;;;5.75;2.05;;;;;;;;;;8306262;28;20052;-65
2023/03/29 13:13:07;;;;;;;3.33;2.25;;;;;;;;;;8308968;28;20505;-66
2023/03/29 13:17:10;;;;;;;3.42;1.92;;;;;;;;;;8309088;28;20466;-65
2023/03/29 13:21:21;;;;;;;3.42;2.10;;;;;;;;;;8309412;28;20570;-65
2023/03/29 13:25:44;;;;;;;3.53;2.00;;;;;;;;;;8310654;28;20041;-65
2023/03/29 13:29:51;;;;;;;6.05;2.60;;;;;;;;;;8308781;28;20065;-65
2023/03/29 13:33:51;;;;;;;4.00;2.28;;;;;;;;;;8308308;28;20037;-65
2023/03/29 13:37:58;;;;;;;2.15;1.90;;;;;;;;;;8310299;28;20064;-65
2023/03/29 13:42:25;;;;;;;2.20;2.00;;;;;;;;;;8311428;28;20618;-66
2023/03/29 13:46:36;;;;;;;6.43;2.10;;;;;;;;;;8288317;28;20041;-65
2023/03/29 13:50:38;;;;;;;3.75;2.03;;;;;;;;;;8310899;28;20822;-65
2023/03/29 13:54:49;;;;;;;3.08;1.98;;;;;;;;;;8311568;28;20025;-65
2023/03/29 13:59:02;;;;;;;3.63;2.00;;;;;;;;;;8307753;28;20563;-65
2023/03/29 14:03:05;;;;;;;6.15;2.53;;;;;;;;;;8309485;28;20037;-65
2023/03/29 14:07:07;;;;;;;4.65;2.10;;;;;;;;;;8307998;28;20425;-64
2023/03/29 14:11:12;;;;;;;5.75;2.53;;;;;;;;;;8307103;28;20592;-64
2023/03/29 14:15:24;;;;;;;5.50;2.50;;;;;;;;;;8309683;28;20021;-65
2023/03/29 14:19:31;;;;;;;6.25;2.40;;;;;;;;;;8309129;28;20101;-65
2023/03/29 14:23:32;;;;;;;8.40;2.10;;;;;;;;;;8308896;28;21099;-65
2023/03/29 14:27:34;;;;;;;5.70;2.42;;;;;;;;;;8310830;28;20422;-65
2023/03/29 14:31:36;;;;;;;6.50;2.60;;;;;;;;;;8310136;28;20167;-65
2023/03/29 14:35:37;;;;;;;6.93;2.17;;;;;;;;;;8308710;28;20021;-65
2023/03/29 14:39:38;;;;;;;3.10;1.90;;;;;;;;;;8312952;28;20152;-65
2023/03/29 14:43:39;;;;;;;5.53;2.00;;;;;;;;;;8315210;28;20388;-65
2023/03/29 14:47:40;;;;;;;2.30;1.58;;;;;;;;;;8312137;28;20156;-65
2023/03/29 14:51:40;;;;;;;4.07;1.50;;;;;;;;;;8315672;28;20022;-65
2023/03/29 14:55:41;;;;;;;3.00;1.40;;;;;;;;;;8307888;28;20025;-65
2023/03/29 14:59:42;;;;;;;5.57;1.48;;;;;;;;;;8308511;28;20032;-65
2023/03/29 15:03:43;;;;;;;3.80;1.70;;;;;;;;;;8312741;28;20045;-65
2023/03/29 15:07:44;;;;;;;3.75;1.67;;;;;;;;;;8313845;28;20022;-66
2023/03/29 15:11:52;;;;;;;3.85;1.48;;;;;;;;;;8310566;28;20036;-66
2023/03/29 15:15:54;;;;;;;3.95;1.40;;;;;;;;;;8313699;28;20033;-65
2023/03/29 15:20:15;;;;;;;3.15;1.30;;;;;;;;;;8309950;28;20036;-65
2023/03/29 15:24:22;;;;;;;2.42;1.20;;;;;;;;;;8312649;28;20020;-66
2023/03/29 15:28:27;;;;;;;1.60;1.20;;;;;;;;;;8303718;28;20727;-65
2023/03/29 15:32:35;;;;;;;3.72;1.70;;;;;;;;;;8309878;28;20033;-65
2023/03/29 15:36:40;;;;;;;2.53;1.30;;;;;;;;;;8311752;28;20102;-65
2023/03/29 15:40:41;;;;;;;4.30;1.50;;;;;;;;;;8312787;28;20943;-65
2023/03/29 15:44:41;;;;;;;3.95;1.60;;;;;;;;;;8312173;28;20021;-66
2023/03/29 15:48:42;;;;;;;5.93;1.48;;;;;;;;;;8309930;28;20045;-65
2023/03/29 15:52:42;;;;;;;2.47;1.27;;;;;;;;;;8310199;28;20028;-65
2023/03/29 15:56:46;;;;;;;2.15;1.30;;;;;;;;;;8294452;28;20082;-65
2023/03/29 16:00:51;;;;;;;2.58;1.42;;;;;;;;;;8312426;28;20620;-66
2023/03/29 16:04:52;;;;;;;2.78;1.27;;;;;;;;;;8306467;28;20057;-65
2023/03/29 16:08:52;;;;;;;3.25;1.50;;;;;;;;;;8297928;28;20040;-65
2023/03/29 16:12:52;;;;;;;1.37;1.20;;;;;;;;;;8309761;28;20032;-65
2023/03/29 16:16:56;;;;;;;2.05;1.50;;;;;;;;;;8294152;28;21426;-65
2023/03/29 16:20:58;;;;;;;;;;;;;;;;;;8296992;28;21105;-65
2023/03/29 16:24:58;;;;;;;3.85;1.10;;;;;;;;;;8296753;28;20021;-65
2023/03/29 16:28:58;;;;;;;1.92;1.27;;;;;;;;;;8297168;28;20061;-65
2023/03/29 16:32:58;;;;;;;2.60;1.35;;;;;;;;;;8284044;28;20041;-65
2023/03/29 16:36:59;;;;;;;3.97;1.45;;;;;;;;;;8304135;28;20021;-65
2023/03/29 16:40:59;;;;;;;3.60;1.45;;;;;;;;;;8308906;28;20466;-65
2023/03/29 16:45:01;;;;;;;2.50;1.70;;;;;;;;;;8300650;28;20578;-65
2023/03/29 16:49:01;;;;;;;2.60;1.50;;;;;;;;;;8308532;28;20566;-65
2023/03/29 16:53:01;;;;;;;3.08;1.48;;;;;;;;;;8309591;28;20028;-66
2023/03/29 16:57:01;;;;;;;4.07;1.50;;;;;;;;;;8304734;28;20750;-65
2023/03/29 17:01:08;;;;;;;4.28;1.67;;;;;;;;;;8290984;28;20037;-65
2023/03/29 17:05:09;;;;;;;3.90;1.50;;;;;;;;;;8308970;28;20115;-65
2023/03/29 17:09:09;;;;;;;4.60;1.75;;;;;;;;;;8307920;28;20060;-65
2023/03/29 17:13:10;;;;;;;7.47;2.78;;;;;;;;;;8305755;28;20135;-65
2023/03/29 17:17:10;;;;;;;6.57;3.33;;;;;;;;;;8309293;28;20720;-65
2023/03/29 17:21:10;;;;;;;6.07;2.23;;;;;;;;;;8309070;28;20014;-65
2023/03/29 17:25:11;;;;;;;3.53;2.10;;;;;;;;;;8309331;28;20022;-65
2023/03/29 17:29:11;;;;;;;3.72;2.45;;;;;;;;;;8309978;28;20040;-65
2023/03/29 17:33:12;;;;;;;4.00;2.30;;;;;;;;;;8301853;28;20510;-65
2023/03/29 17:37:12;;;;;;;5.60;2.88;;;;;;;;;;8309482;28;20028;-65
2023/03/29 17:41:12;;;;;;;3.47;2.53;;;;;;;;;;8308757;28;20215;-65
2023/03/29 17:45:13;;;;;;;6.03;3.85;;;;;;;;;;8305846;28;20055;-65
2023/03/29 17:49:14;;;;;;;4.82;2.25;;;;;;;;;;8305691;28;20144;-65
2023/03/29 17:53:14;;;;;;;6.10;3.23;;;;;;;;;;8304200;28;21083;-65
2023/03/29 17:57:15;;;;;;;5.47;3.88;;;;;;;;;;8306043;28;20280;-65
2023/03/29 18:01:18;;;;;;;4.20;2.78;;;;;;;;;;8307303;28;20037;-65
2023/03/29 18:05:18;;;;;;;5.78;3.75;;;;;;;;;;8306516;28;20032;-65
2023/03/29 18:09:18;;;;;;;3.50;2.47;;;;;;;;;;8306652;28;20028;-65
2023/03/29 18:13:24;;;;;;;4.70;2.85;;;;;;;;;;8301425;28;20036;-65
2023/03/29 18:17:26;;;;;;;5.03;3.15;;;;;;;;;;8306581;28;20115;-65
2023/03/29 18:21:26;;;;;;;4.38;3.00;;;;;;;;;;8303265;28;20051;-66
2023/03/29 18:25:26;;;;;;;4.80;2.72;;;;;;;;;;8306985;28;20036;-65
2023/03/29 18:29:26;;;;;;;4.45;3.00;;;;;;;;;;8306915;28;20025;-65
2023/03/29 18:33:29;;;;;;;5.35;3.08;;;;;;;;;;8305630;28;20098;-64
2023/03/29 18:37:29;;;;;;;6.95;4.47;;;;;;;;;;8306534;28;20029;-65
2023/03/29 18:41:30;;;;;;;7.95;4.03;;;;;;;;;;8308065;28;20032;-64
2023/03/29 18:45:30;;;;;;;5.05;2.92;;;;;;;;;;8305311;28;22115;-65
2023/03/29 18:49:31;;;;;;;7.47;2.77;;;;;;;;;;8305752;28;20112;-65
2023/03/29 18:53:31;;;;;;;7.28;4.35;;;;;;;;;;8307114;28;20296;-65
2023/03/29 18:57:31;;;;;;;6.53;3.80;;;;;;;;;;8304645;28;20020;-65
2023/03/29 19:01:31;;;;;;;5.47;3.92;;;;;;;;;;8306058;28;20276;-65
2023/03/29 19:05:32;;;;;;;4.90;3.30;;;;;;;;;;8305846;28;20067;-65
2023/03/29 19:09:32;;;;;;;8.43;4.47;;;;;;;;;;8303997;28;20878;-64
2023/03/29 19:13:32;;;;;;;3.80;2.60;;;;;;;;;;8302085;28;20033;-65
2023/03/29 19:17:32;;;;;;;6.80;2.67;;;;;;;;;;8305287;28;20034;-64
2023/03/29 19:21:33;;;;;;;4.30;2.50;;;;;;;;;;8304865;28;20028;-65
2023/03/29 19:25:33;;;;;;;4.57;2.10;;;;;;;;;;8308850;28;20024;-64
2023/03/29 19:29:33;;;;;;;4.65;2.22;;;;;;;;;;8313573;28;20126;-65
2023/03/29 19:33:34;;;;;;;5.15;2.40;;;;;;;;;;8310862;28;20038;-65
2023/03/29 19:37:34;;;;;;;3.25;2.03;;;;;;;;;;8296681;28;20028;-65
2023/03/29 19:41:34;;;;;;;6.45;2.65;;;;;;;;;;8308349;28;20143;-65
2023/03/29 19:45:34;;;;;;;3.95;2.03;;;;;;;;;;8310870;28;20305;-65
2023/03/29 19:49:37;;;;;;;3.42;2.13;;;;;;;;;;8309460;28;20373;-65
2023/03/29 19:53:38;;;;;;;7.10;2.30;;;;;;;;;;8312549;28;20025;-65
2023/03/29 19:57:38;;;;;;;4.40;2.60;;;;;;;;;;8310882;28;20025;-64
2023/03/29 20:01:41;;;;;;;4.20;2.40;;;;;;;;;;8314361;28;20045;-64
2023/03/29 20:05:41;;;;;;;5.78;2.33;;;;;;;;;;8313454;28;20032;-65
2023/03/29 20:09:41;;;;;;;4.40;3.00;;;;;;;;;;8315801;28;20563;-64
2023/03/29 20:13:42;;;;;;;4.43;2.95;;;;;;;;;;8315716;28;20686;-64
2023/03/29 20:17:43;;;;;;;5.05;2.63;;;;;;;;;;8313435;28;20060;-64
2023/03/29 20:21:43;;;;;;;3.72;2.20;;;;;;;;;;8314374;28;20021;-64
2023/03/29 20:25:44;;;;;;;3.80;2.55;;;;;;;;;;8306126;28;20025;-64
2023/03/29 20:29:44;;;;;;;3.35;1.88;;;;;;;;;;8312269;28;20120;-64
2023/03/29 20:33:44;;;;;;;4.82;1.88;;;;;;;;;;8314061;28;20034;-64
2023/03/29 20:37:45;;;;;;;9.77;1.95;;;;;;;;;;8311077;28;20029;-64
2023/03/29 20:41:49;;;;;;;4.85;1.45;;;;;;;;;;8313578;28;20106;-64
2023/03/29 20:45:52;;;;;;;3.33;1.30;;;;;;;;;;8313058;28;20043;-64
2023/03/29 20:49:53;;;;;;;6.93;1.60;;;;;;;;;;8312229;28;20028;-64
2023/03/29 20:54:00;;;;;;;5.55;1.70;;;;;;;;;;8313819;28;20025;-64
2023/03/29 20:58:02;;;;;;;3.85;1.80;;;;;;;;;;8313358;28;20586;-64
2023/03/29 21:02:03;;;;;;;6.22;1.50;;;;;;;;;;8311091;28;20060;-64
2023/03/29 21:06:03;;;;;;;6.65;1.75;;;;;;;;;;8310186;28;20590;-64
2023/03/29 21:10:04;;;;;;;9.80;1.57;;;;;;;;;;8312634;28;20115;-64
2023/03/29 21:14:04;;;;;;;7.80;2.00;;;;;;;;;;8312341;28;20270;-64
2023/03/29 21:18:05;;;;;;;8.30;1.60;;;;;;;;;;8303111;28;20771;-64
2023/03/29 21:22:05;;;;;;;4.18;1.58;;;;;;;;;;8310625;28;20087;-65
2023/03/29 21:26:08;;;;;;;11.30;1.80;;;;;;;;;;8311872;28;20101;-64
2023/03/29 21:30:09;;;;;;;3.90;1.50;;;;;;;;;;8311565;28;20288;-64
2023/03/29 21:34:09;;;;;;;8.77;2.03;;;;;;;;;;8312215;28;20055;-64
2023/03/29 21:38:10;;;;;;;5.43;1.88;;;;;;;;;;8311695;28;20025;-64
2023/03/29 21:42:10;;;;;;;8.70;1.70;;;;;;;;;;8310031;28;20049;-64
2023/03/29 21:46:10;;;;;;;6.72;1.52;;;;;;;;;;8308372;28;20033;-65
2023/03/29 21:50:10;;;;;;;12.45;2.10;;;;;;;;;;8306954;28;20832;-64
2023/03/29 21:54:11;;;;;;;10.80;2.08;;;;;;;;;;8309384;28;20029;-64
2023/03/29 21:58:11;;;;;;;10.00;1.90;;;;;;;;;;8311284;28;20017;-64
2023/03/29 22:02:11;;;;;;;8.95;1.75;;;;;;;;;;8310023;28;20044;-65
2023/03/29 22:06:12;;;;;;;5.10;1.50;;;;;;;;;;8309910;28;20013;-64
2023/03/29 22:10:12;;;;;;;9.45;1.90;;;;;;;;;;8310545;28;20021;-64
2023/03/29 22:14:13;;;;;;;7.85;1.80;;;;;;;;;;8310506;28;20025;-64
2023/03/29 22:18:13;;;;;;;6.60;1.90;;;;;;;;;;8309088;28;20076;-64
2023/03/29 22:22:13;;;;;;;9.20;1.85;;;;;;;;;;8311308;28;20519;-64
2023/03/29 22:26:14;;;;;;;8.45;1.75;;;;;;;;;;8309764;28;20138;-64
2023/03/29 22:30:15;;;;;;;7.50;2.17;;;;;;;;;;8309123;28;20033;-64
2023/03/29 22:34:15;;;;;;;9.05;2.10;;;;;;;;;;8310955;28;20489;-65
2023/03/29 22:38:15;;;;;;;8.83;1.93;;;;;;;;;;8295211;28;20037;-64
2023/03/29 22:42:16;;;;;;;9.27;1.83;;;;;;;;;;8309183;28;20067;-64
2023/03/29 22:46:16;;;;;;;7.13;1.77;;;;;;;;;;8309454;28;20439;-64
2023/03/29 22:50:17;;;;;;;10.35;2.03;;;;;;;;;;8309446;28;20120;-64
2023/03/29 22:54:17;;;;;;;8.17;2.20;;;;;;;;;;8311529;28;20028;-64
2023/03/29 22:58:17;;;;;;;8.00;2.00;;;;;;;;;;8309971;28;20197;-64
2023/03/29 23:02:17;;;;;;;9.70;2.13;;;;;;;;;;8317458;28;20032;-64
2023/03/29 23:06:18;;;;;;;23.17;2.95;;;;;;;;;;8316190;28;21144;-64
2023/03/29 23:10:18;;;;;;;8.37;1.97;;;;;;;;;;8316457;28;20108;-64
2023/03/29 23:14:18;;;;;;;8.23;2.05;;;;;;;;;;8316429;28;20071;-64
2023/03/29 23:18:19;;;;;;;12.60;2.30;;;;;;;;;;8316597;28;20037;-64
2023/03/29 23:22:20;;;;;;;11.25;2.00;;;;;;;;;;8316424;28;20032;-64
2023/03/29 23:26:21;;;;;;;13.00;2.40;;;;;;;;;;8314788;28;20120;-64
2023/03/29 23:30:22;;;;;;;7.65;2.17;;;;;;;;;;8312695;28;20579;-64
2023/03/29 23:34:22;;;;;;;14.45;2.45;;;;;;;;;;8316014;28;20447;-64
2023/03/29 23:38:23;;;;;;;8.73;2.17;;;;;;;;;;8315313;28;20036;-64
2023/03/29 23:42:23;;;;;;;5.95;1.98;;;;;;;;;;8314073;28;20030;-64
2023/03/29 23:46:23;;;;;;;13.20;2.17;;;;;;;;;;8315078;28;20047;-64
2023/03/29 23:50:27;;;;;;;9.00;2.00;;;;;;;;;;8314797;28;20029;-64
2023/03/29 23:54:28;;;;;;;10.40;2.20;;;;;;;;;;8314750;28;20061;-64
2023/03/29 23:58:28;;;;;;;8.75;2.15;;;;;;;;;;8315410;28;20025;-64
